sensor_id;sensor_type;location;lat;lon;timestamp;pressure;altitude;pressure_sealevel;temperature;humidity
6032;BME280;3044;43.232;27.972;2023-06-04T00:01:26;43754.47;;;-143.84;89.97
6032;BME280;3044;43.232;27.972;2023-06-04T00:03:53;43733.53;;;-143.84;90.06
6032;BME280;3044;43.232;27.972;2023-06-04T00:06:20;43746.88;;;-143.84;90.15
6032;BME280;3044;43.232;27.972;2023-06-04T00:08:47;43722.13;;;-143.84;90.20
6032;BME280;3044;43.232;27.972;2023-06-04T00:11:14;43743.06;;;-143.84;90.07
6032;BME280;3044;43.232;27.972;2023-06-04T00:13:43;43779.22;;;-143.84;90.10
6032;BME280;3044;43.232;27.972;2023-06-04T00:16:10;43758.28;;;-143.84;90.18
6032;BME280;3044;43.232;27.972;2023-06-04T00:18:37;43733.53;;;-143.84;89.75
6032;BME280;3044;43.232;27.972;2023-06-04T00:21:04;43754.47;;;-143.84;89.81
6032;BME280;3044;43.232;27.972;2023-06-04T00:23:31;43731.66;;;-143.84;89.64
6032;BME280;3044;43.232;27.972;2023-06-04T00:25:58;43777.31;;;-143.84;89.46
6032;BME280;3044;43.232;27.972;2023-06-04T00:28:25;43773.53;;;-143.84;89.31
6032;BME280;3044;43.232;27.972;2023-06-04T00:30:54;43783.03;;;-143.84;89.44
6032;BME280;3044;43.232;27.972;2023-06-04T00:33:21;43788.75;;;-143.84;89.40
6032;BME280;3044;43.232;27.972;2023-06-04T00:35:48;43758.28;;;-143.84;89.52
6032;BME280;3044;43.232;27.972;2023-06-04T00:38:15;43756.38;;;-143.84;89.73
6032;BME280;3044;43.232;27.972;2023-06-04T00:40:42;43760.19;;;-143.84;89.81
6032;BME280;3044;43.232;27.972;2023-06-04T00:43:10;43769.72;;;-143.84;89.54
6032;BME280;3044;43.232;27.972;2023-06-04T00:45:39;43773.53;;;-143.84;89.85
6032;BME280;3044;43.232;27.972;2023-06-04T00:48:07;43779.22;;;-143.84;89.84
6032;BME280;3044;43.232;27.972;2023-06-04T00:50:35;43758.28;;;-143.84;89.53
6032;BME280;3044;43.232;27.972;2023-06-04T00:53:04;43817.31;;;-143.84;89.01
6032;BME280;3044;43.232;27.972;2023-06-04T00:55:31;43889.63;;;-143.84;88.27
6032;BME280;3044;43.232;27.972;2023-06-04T00:57:58;43923.91;;;-143.84;88.10
6032;BME280;3044;43.232;27.972;2023-06-04T01:00:26;43914.38;;;-143.84;87.94
6032;BME280;3044;43.232;27.972;2023-06-04T01:02:54;43887.72;;;-143.84;88.70
6032;BME280;3044;43.232;27.972;2023-06-04T01:05:29;43857.28;;;-143.84;88.84
6032;BME280;3044;43.232;27.972;2023-06-04T01:08:01;43832.53;;;-143.84;89.25
6032;BME280;3044;43.232;27.972;2023-06-04T01:10:28;43830.63;;;-143.84;89.53
6032;BME280;3044;43.232;27.972;2023-06-04T01:12:55;43813.50;;;-143.84;89.37
6032;BME280;3044;43.232;27.972;2023-06-04T01:15:22;43834.44;;;-143.84;88.97
6032;BME280;3044;43.232;27.972;2023-06-04T01:17:54;43868.69;;;-143.84;88.75
6032;BME280;3044;43.232;27.972;2023-06-04T01:20:34;43912.47;;;-143.84;88.73
6032;BME280;3044;43.232;27.972;2023-06-04T01:23:22;43906.75;;;-143.84;88.53
6032;BME280;3044;43.232;27.972;2023-06-04T01:25:54;43918.19;;;-143.84;88.39
6032;BME280;3044;43.232;27.972;2023-06-04T01:28:23;43925.78;;;-143.84;88.44
6032;BME280;3044;43.232;27.972;2023-06-04T01:30:50;43996.22;;;-143.84;87.82
6032;BME280;3044;43.232;27.972;2023-06-04T01:33:19;44013.38;;;-143.84;87.93
6032;BME280;3044;43.232;27.972;2023-06-04T01:35:47;43998.13;;;-143.84;87.98
6032;BME280;3044;43.232;27.972;2023-06-04T01:38:15;43990.53;;;-143.84;88.05
6032;BME280;3044;43.232;27.972;2023-06-04T01:40:42;44040.00;;;-143.84;87.95
6032;BME280;3044;43.232;27.972;2023-06-04T01:43:09;44024.78;;;-143.84;87.94
6032;BME280;3044;43.232;27.972;2023-06-04T01:45:36;44011.47;;;-143.84;88.09
6032;BME280;3044;43.232;27.972;2023-06-04T01:48:04;44060.94;;;-143.84;88.13
6032;BME280;3044;43.232;27.972;2023-06-04T01:50:32;44001.94;;;-143.84;88.54
6032;BME280;3044;43.232;27.972;2023-06-04T01:53:01;44040.00;;;-143.84;87.95
6032;BME280;3044;43.232;27.972;2023-06-04T01:55:28;44066.66;;;-143.84;87.93
6032;BME280;3044;43.232;27.972;2023-06-04T01:57:59;44112.34;;;-143.84;87.70
6032;BME280;3044;43.232;27.972;2023-06-04T02:00:27;44243.69;;;-143.84;87.08
6032;BME280;3044;43.232;27.972;2023-06-04T02:02:54;44190.41;;;-143.84;87.37
6032;BME280;3044;43.232;27.972;2023-06-04T02:05:21;44253.22;;;-143.84;87.05
6032;BME280;3044;43.232;27.972;2023-06-04T02:07:49;44293.19;;;-143.84;87.03
6032;BME280;3044;43.232;27.972;2023-06-04T02:10:19;44369.34;;;-143.84;86.68
6032;BME280;3044;43.232;27.972;2023-06-04T02:12:57;44396.00;;;-143.84;86.61
6032;BME280;3044;43.232;27.972;2023-06-04T02:15:25;44434.09;;;-143.84;86.37
6032;BME280;3044;43.232;27.972;2023-06-04T02:17:56;44455.03;;;-143.84;86.36
6032;BME280;3044;43.232;27.972;2023-06-04T02:20:25;44504.53;;;-143.84;86.08
6032;BME280;3044;43.232;27.972;2023-06-04T02:22:53;44544.50;;;-143.84;85.66
6032;BME280;3044;43.232;27.972;2023-06-04T02:25:22;44548.31;;;-143.84;85.66
6032;BME280;3044;43.232;27.972;2023-06-04T02:27:50;44552.13;;;-143.84;85.94
6032;BME280;3044;43.232;27.972;2023-06-04T02:30:17;44632.09;;;-143.84;85.57
6032;BME280;3044;43.232;27.972;2023-06-04T02:32:44;44609.22;;;-143.84;85.42
6032;BME280;3044;43.232;27.972;2023-06-04T02:35:11;44637.78;;;-143.84;85.64
6032;BME280;3044;43.232;27.972;2023-06-04T02:37:38;44603.53;;;-143.84;85.55
6032;BME280;3044;43.232;27.972;2023-06-04T02:40:07;44626.38;;;-143.84;85.55
6032;BME280;3044;43.232;27.972;2023-06-04T02:42:35;44634.00;;;-143.84;85.82
6032;BME280;3044;43.232;27.972;2023-06-04T02:45:03;44645.41;;;-143.84;85.64
6032;BME280;3044;43.232;27.972;2023-06-04T02:47:30;44662.53;;;-143.84;85.66
6032;BME280;3044;43.232;27.972;2023-06-04T02:49:58;44689.19;;;-143.84;85.62
6032;BME280;3044;43.232;27.972;2023-06-04T02:52:25;44647.31;;;-143.84;85.44
6032;BME280;3044;43.232;27.972;2023-06-04T02:54:52;44710.16;;;-143.84;85.35
6032;BME280;3044;43.232;27.972;2023-06-04T02:57:19;44721.56;;;-143.84;85.10
6032;BME280;3044;43.232;27.972;2023-06-04T02:59:47;44746.31;;;-143.84;84.94
6032;BME280;3044;43.232;27.972;2023-06-04T03:02:14;44744.41;;;-143.84;84.60
6032;BME280;3044;43.232;27.972;2023-06-04T03:04:42;44772.97;;;-143.84;84.51
6032;BME280;3044;43.232;27.972;2023-06-04T03:07:10;44776.78;;;-143.84;84.38
6032;BME280;3044;43.232;27.972;2023-06-04T03:09:39;44811.06;;;-143.84;84.23
6032;BME280;3044;43.232;27.972;2023-06-04T03:12:06;44822.47;;;-143.84;84.22
6032;BME280;3044;43.232;27.972;2023-06-04T03:14:33;44805.34;;;-143.84;84.23
6032;BME280;3044;43.232;27.972;2023-06-04T03:17:02;44793.91;;;-143.84;84.34
6032;BME280;3044;43.232;27.972;2023-06-04T03:19:35;44824.38;;;-143.84;84.22
6032;BME280;3044;43.232;27.972;2023-06-04T03:22:03;44818.66;;;-143.84;84.27
6032;BME280;3044;43.232;27.972;2023-06-04T03:24:33;44839.63;;;-143.84;83.95
6032;BME280;3044;43.232;27.972;2023-06-04T03:27:02;44845.31;;;-143.84;83.86
6032;BME280;3044;43.232;27.972;2023-06-04T03:29:29;44852.94;;;-143.84;83.84
6032;BME280;3044;43.232;27.972;2023-06-04T03:31:57;44839.63;;;-143.84;83.79
6032;BME280;3044;43.232;27.972;2023-06-04T03:34:26;44875.78;;;-143.84;83.39
6032;BME280;3044;43.232;27.972;2023-06-04T03:36:54;44866.28;;;-143.84;83.24
6032;BME280;3044;43.232;27.972;2023-06-04T03:39:21;44871.97;;;-143.84;83.19
6032;BME280;3044;43.232;27.972;2023-06-04T03:41:49;44868.19;;;-143.84;83.53
6032;BME280;3044;43.232;27.972;2023-06-04T03:44:16;44891.03;;;-143.84;83.05
6032;BME280;3044;43.232;27.972;2023-06-04T03:46:45;44932.91;;;-143.84;82.52
6032;BME280;3044;43.232;27.972;2023-06-04T03:49:13;44913.88;;;-143.84;82.46
6032;BME280;3044;43.232;27.972;2023-06-04T03:51:44;44946.25;;;-143.84;81.33
6032;BME280;3044;43.232;27.972;2023-06-04T03:54:11;44971.00;;;-143.84;80.46
6032;BME280;3044;43.232;27.972;2023-06-04T03:56:43;44997.66;;;-143.84;80.05
6032;BME280;3044;43.232;27.972;2023-06-04T03:59:10;45012.88;;;-143.84;79.56
6032;BME280;3044;43.232;27.972;2023-06-04T04:01:37;45003.38;;;-143.84;79.56
6032;BME280;3044;43.232;27.972;2023-06-04T04:04:05;45007.19;;;-143.84;79.67
6032;BME280;3044;43.232;27.972;2023-06-04T04:06:32;44974.81;;;-143.84;79.64
6032;BME280;3044;43.232;27.972;2023-06-04T04:09:02;44999.56;;;-143.84;78.88
6032;BME280;3044;43.232;27.972;2023-06-04T04:11:30;44999.56;;;-143.84;77.97
6032;BME280;3044;43.232;27.972;2023-06-04T04:13:57;45016.69;;;-143.84;77.57
6032;BME280;3044;43.232;27.972;2023-06-04T04:16:24;45056.69;;;-143.84;75.85
6032;BME280;3044;43.232;27.972;2023-06-04T04:18:53;45037.66;;;-143.84;74.53
6032;BME280;3044;43.232;27.972;2023-06-04T04:21:20;45052.88;;;-143.84;74.03
6032;BME280;3044;43.232;27.972;2023-06-04T04:23:49;45056.69;;;-143.84;73.58
6032;BME280;3044;43.232;27.972;2023-06-04T04:26:18;45033.84;;;-143.84;72.90
6032;BME280;3044;43.232;27.972;2023-06-04T04:28:45;45033.84;;;-143.84;72.69
6032;BME280;3044;43.232;27.972;2023-06-04T04:31:12;45045.25;;;-143.84;72.45
6032;BME280;3044;43.232;27.972;2023-06-04T04:33:40;45049.06;;;-143.84;71.77
6032;BME280;3044;43.232;27.972;2023-06-04T04:36:07;45039.53;;;-143.84;71.16
6032;BME280;3044;43.232;27.972;2023-06-04T04:38:39;45033.84;;;-143.84;70.12
6032;BME280;3044;43.232;27.972;2023-06-04T04:41:06;45071.91;;;-143.84;69.05
6032;BME280;3044;43.232;27.972;2023-06-04T04:43:36;45068.13;;;-143.84;68.35
6032;BME280;3044;43.232;27.972;2023-06-04T04:46:05;45073.81;;;-143.84;66.63
6032;BME280;3044;43.232;27.972;2023-06-04T04:48:32;45049.06;;;-143.84;66.09
6032;BME280;3044;43.232;27.972;2023-06-04T04:50:59;45045.25;;;-143.84;64.62
6032;BME280;3044;43.232;27.972;2023-06-04T04:53:26;45075.72;;;-143.84;63.40
6032;BME280;3044;43.232;27.972;2023-06-04T04:55:54;45043.34;;;-143.84;61.78
6032;BME280;3044;43.232;27.972;2023-06-04T04:58:21;45047.16;;;-143.84;60.71
6032;BME280;3044;43.232;27.972;2023-06-04T05:00:49;45039.53;;;-143.84;60.26
6032;BME280;3044;43.232;27.972;2023-06-04T05:03:16;45037.66;;;-143.84;59.93
6032;BME280;3044;43.232;27.972;2023-06-04T05:05:43;45031.94;;;-143.84;59.04
6032;BME280;3044;43.232;27.972;2023-06-04T05:08:11;45064.31;;;-143.84;58.39
6032;BME280;3044;43.232;27.972;2023-06-04T05:10:38;45018.59;;;-143.84;58.68
6032;BME280;3044;43.232;27.972;2023-06-04T05:13:05;45052.88;;;-143.84;58.50
6032;BME280;3044;43.232;27.972;2023-06-04T05:15:32;45041.44;;;-143.84;58.79
6032;BME280;3044;43.232;27.972;2023-06-04T05:18:02;45039.53;;;-143.84;59.87
6032;BME280;3044;43.232;27.972;2023-06-04T05:20:29;45056.69;;;-143.84;59.52
6032;BME280;3044;43.232;27.972;2023-06-04T05:22:56;45039.53;;;-143.84;59.39
6032;BME280;3044;43.232;27.972;2023-06-04T05:25:23;45056.69;;;-143.84;57.77
6032;BME280;3044;43.232;27.972;2023-06-04T05:27:52;45039.53;;;-143.84;57.67
6032;BME280;3044;43.232;27.972;2023-06-04T05:30:20;45028.13;;;-143.84;55.48
6032;BME280;3044;43.232;27.972;2023-06-04T05:32:47;45052.88;;;-143.84;54.20
6032;BME280;3044;43.232;27.972;2023-06-04T05:35:18;45022.41;;;-143.84;51.60
6032;BME280;3044;43.232;27.972;2023-06-04T05:37:45;45039.53;;;-143.84;51.20
6032;BME280;3044;43.232;27.972;2023-06-04T05:40:19;45007.19;;;-143.84;51.14
6032;BME280;3044;43.232;27.972;2023-06-04T05:42:47;45033.84;;;-143.84;49.21
6032;BME280;3044;43.232;27.972;2023-06-04T05:45:15;45041.44;;;-143.84;49.34
6032;BME280;3044;43.232;27.972;2023-06-04T05:47:42;45026.22;;;-143.84;48.46
6032;BME280;3044;43.232;27.972;2023-06-04T05:50:09;45028.13;;;-143.84;48.88
6032;BME280;3044;43.232;27.972;2023-06-04T05:52:38;45026.22;;;-143.84;48.11
6032;BME280;3044;43.232;27.972;2023-06-04T05:55:06;45024.31;;;-143.84;47.52
6032;BME280;3044;43.232;27.972;2023-06-04T05:57:34;45007.19;;;-143.84;45.33
6032;BME280;3044;43.232;27.972;2023-06-04T06:00:01;45012.88;;;-143.84;45.74
6032;BME280;3044;43.232;27.972;2023-06-04T06:02:31;45024.31;;;-143.84;45.13
6032;BME280;3044;43.232;27.972;2023-06-04T06:05:00;45018.59;;;-143.84;44.11
6032;BME280;3044;43.232;27.972;2023-06-04T06:07:27;45007.19;;;-143.84;43.20
6032;BME280;3044;43.232;27.972;2023-06-04T06:09:56;45020.50;;;-143.84;42.91
6032;BME280;3044;43.232;27.972;2023-06-04T06:12:23;45012.88;;;-143.84;42.30
6032;BME280;3044;43.232;27.972;2023-06-04T06:14:50;45018.59;;;-143.84;41.88
6032;BME280;3044;43.232;27.972;2023-06-04T06:17:17;45007.19;;;-143.84;42.39
6032;BME280;3044;43.232;27.972;2023-06-04T06:19:44;45039.53;;;-143.84;41.94
6032;BME280;3044;43.232;27.972;2023-06-04T06:22:11;44974.81;;;-143.84;41.45
6032;BME280;3044;43.232;27.972;2023-06-04T06:24:39;45007.19;;;-143.84;41.97
6032;BME280;3044;43.232;27.972;2023-06-04T06:27:08;44986.22;;;-143.84;41.82
6032;BME280;3044;43.232;27.972;2023-06-04T06:29:35;44999.56;;;-143.84;41.65
6032;BME280;3044;43.232;27.972;2023-06-04T06:32:02;44991.94;;;-143.84;41.16
6032;BME280;3044;43.232;27.972;2023-06-04T06:34:29;44969.09;;;-143.84;40.52
6032;BME280;3044;43.232;27.972;2023-06-04T06:36:56;44974.81;;;-143.84;40.07
6032;BME280;3044;43.232;27.972;2023-06-04T06:39:24;44988.13;;;-143.84;40.66
6032;BME280;3044;43.232;27.972;2023-06-04T06:41:51;44990.03;;;-143.84;40.79
6032;BME280;3044;43.232;27.972;2023-06-04T06:44:20;44976.72;;;-143.84;40.14
6032;BME280;3044;43.232;27.972;2023-06-04T06:46:47;44974.81;;;-143.84;39.80
6032;BME280;3044;43.232;27.972;2023-06-04T06:49:14;44972.91;;;-143.84;40.04
6032;BME280;3044;43.232;27.972;2023-06-04T06:51:41;44990.03;;;-143.84;40.35
6032;BME280;3044;43.232;27.972;2023-06-04T06:54:09;44972.91;;;-143.84;40.69
6032;BME280;3044;43.232;27.972;2023-06-04T06:56:36;44986.22;;;-143.84;41.13
6032;BME280;3044;43.232;27.972;2023-06-04T06:59:03;44972.91;;;-143.84;41.68
6032;BME280;3044;43.232;27.972;2023-06-04T07:01:31;44997.66;;;-143.84;40.95
6032;BME280;3044;43.232;27.972;2023-06-04T07:03:59;44990.03;;;-143.84;40.66
6032;BME280;3044;43.232;27.972;2023-06-04T07:06:26;44980.53;;;-143.84;40.11
6032;BME280;3044;43.232;27.972;2023-06-04T07:08:53;44986.22;;;-143.84;41.47
6032;BME280;3044;43.232;27.972;2023-06-04T07:11:21;44950.06;;;-143.84;40.69
6032;BME280;3044;43.232;27.972;2023-06-04T07:13:48;44997.66;;;-143.84;40.06
6032;BME280;3044;43.232;27.972;2023-06-04T07:16:15;44988.13;;;-143.84;39.80
6032;BME280;3044;43.232;27.972;2023-06-04T07:18:47;44972.91;;;-143.84;39.64
6032;BME280;3044;43.232;27.972;2023-06-04T07:21:14;44991.94;;;-143.84;38.78
6032;BME280;3044;43.232;27.972;2023-06-04T07:23:41;44988.13;;;-143.84;39.00
6032;BME280;3044;43.232;27.972;2023-06-04T07:26:11;44961.47;;;-143.84;38.85
6032;BME280;3044;43.232;27.972;2023-06-04T07:28:38;44991.94;;;-143.84;39.92
6032;BME280;3044;43.232;27.972;2023-06-04T07:31:05;44984.31;;;-143.84;39.77
6032;BME280;3044;43.232;27.972;2023-06-04T07:33:32;44971.00;;;-143.84;39.96
6032;BME280;3044;43.232;27.972;2023-06-04T07:36:01;44982.41;;;-143.84;40.08
6032;BME280;3044;43.232;27.972;2023-06-04T07:38:28;44982.41;;;-143.84;39.97
6032;BME280;3044;43.232;27.972;2023-06-04T07:40:55;44955.75;;;-143.84;38.39
6032;BME280;3044;43.232;27.972;2023-06-04T07:43:22;44988.13;;;-143.84;37.65
6032;BME280;3044;43.232;27.972;2023-06-04T07:45:49;44957.66;;;-143.84;38.81
6032;BME280;3044;43.232;27.972;2023-06-04T07:48:16;44971.00;;;-143.84;38.04
6032;BME280;3044;43.232;27.972;2023-06-04T07:50:44;44953.88;;;-143.84;38.10
6032;BME280;3044;43.232;27.972;2023-06-04T07:53:12;44986.22;;;-143.84;37.36
6032;BME280;3044;43.232;27.972;2023-06-04T07:55:39;44967.19;;;-143.84;37.41
6032;BME280;3044;43.232;27.972;2023-06-04T07:58:06;44988.13;;;-143.84;37.24
6032;BME280;3044;43.232;27.972;2023-06-04T08:00:34;44984.31;;;-143.84;37.13
6032;BME280;3044;43.232;27.972;2023-06-04T08:03:01;44948.16;;;-143.84;37.86
6032;BME280;3044;43.232;27.972;2023-06-04T08:05:28;44971.00;;;-143.84;37.43
6032;BME280;3044;43.232;27.972;2023-06-04T08:07:55;44984.31;;;-143.84;37.75
6032;BME280;3044;43.232;27.972;2023-06-04T08:10:23;44978.63;;;-143.84;38.59
6032;BME280;3044;43.232;27.972;2023-06-04T08:12:50;44988.13;;;-143.84;38.68
6032;BME280;3044;43.232;27.972;2023-06-04T08:15:18;44993.84;;;-143.84;39.23
6032;BME280;3044;43.232;27.972;2023-06-04T08:17:45;44999.56;;;-143.84;38.98
6032;BME280;3044;43.232;27.972;2023-06-04T08:20:12;45005.28;;;-143.84;38.64
6032;BME280;3044;43.232;27.972;2023-06-04T08:22:39;45007.19;;;-143.84;38.92
6032;BME280;3044;43.232;27.972;2023-06-04T08:25:08;44999.56;;;-143.84;39.69
6032;BME280;3044;43.232;27.972;2023-06-04T08:27:37;44972.91;;;-143.84;40.80
6032;BME280;3044;43.232;27.972;2023-06-04T08:30:05;44986.22;;;-143.84;39.18
6032;BME280;3044;43.232;27.972;2023-06-04T08:32:32;44982.41;;;-143.84;39.80
6032;BME280;3044;43.232;27.972;2023-06-04T08:34:59;44976.72;;;-143.84;39.77
6032;BME280;3044;43.232;27.972;2023-06-04T08:37:27;44978.63;;;-143.84;40.36
6032;BME280;3044;43.232;27.972;2023-06-04T08:39:54;44991.94;;;-143.84;40.97
6032;BME280;3044;43.232;27.972;2023-06-04T08:42:25;45005.28;;;-143.84;40.70
6032;BME280;3044;43.232;27.972;2023-06-04T08:44:56;44974.81;;;-143.84;41.24
6032;BME280;3044;43.232;27.972;2023-06-04T08:47:24;44980.53;;;-143.84;41.18
6032;BME280;3044;43.232;27.972;2023-06-04T08:49:53;45003.38;;;-143.84;41.31
6032;BME280;3044;43.232;27.972;2023-06-04T08:52:22;44980.53;;;-143.84;40.40
6032;BME280;3044;43.232;27.972;2023-06-04T08:54:50;44991.94;;;-143.84;41.14
6032;BME280;3044;43.232;27.972;2023-06-04T08:57:19;44986.22;;;-143.84;40.83
6032;BME280;3044;43.232;27.972;2023-06-04T08:59:47;44976.72;;;-143.84;41.18
6032;BME280;3044;43.232;27.972;2023-06-04T09:02:16;45010.97;;;-143.84;40.46
6032;BME280;3044;43.232;27.972;2023-06-04T09:04:44;44984.31;;;-143.84;39.99
6032;BME280;3044;43.232;27.972;2023-06-04T09:07:13;45007.19;;;-143.84;40.29
6032;BME280;3044;43.232;27.972;2023-06-04T09:09:41;44980.53;;;-143.84;41.41
6032;BME280;3044;43.232;27.972;2023-06-04T09:12:10;44982.41;;;-143.84;40.57
6032;BME280;3044;43.232;27.972;2023-06-04T09:14:38;44980.53;;;-143.84;42.06
6032;BME280;3044;43.232;27.972;2023-06-04T09:17:05;44990.03;;;-143.84;39.86
6032;BME280;3044;43.232;27.972;2023-06-04T09:19:34;44988.13;;;-143.84;39.86
6032;BME280;3044;43.232;27.972;2023-06-04T09:22:01;45014.78;;;-143.84;39.09
6032;BME280;3044;43.232;27.972;2023-06-04T09:24:39;45010.97;;;-143.84;39.70
6032;BME280;3044;43.232;27.972;2023-06-04T09:27:10;44997.66;;;-143.84;40.93
6032;BME280;3044;43.232;27.972;2023-06-04T09:29:38;44980.53;;;-143.84;38.61
6032;BME280;3044;43.232;27.972;2023-06-04T09:32:05;44986.22;;;-143.84;39.06
6032;BME280;3044;43.232;27.972;2023-06-04T09:34:34;44972.91;;;-143.84;38.71
6032;BME280;3044;43.232;27.972;2023-06-04T09:37:02;44988.13;;;-143.84;39.41
6032;BME280;3044;43.232;27.972;2023-06-04T09:39:29;44978.63;;;-143.84;38.99
6032;BME280;3044;43.232;27.972;2023-06-04T09:42:00;44984.31;;;-143.84;38.17
6032;BME280;3044;43.232;27.972;2023-06-04T09:44:28;44990.03;;;-143.84;38.46
6032;BME280;3044;43.232;27.972;2023-06-04T09:46:55;44993.84;;;-143.84;38.10
6032;BME280;3044;43.232;27.972;2023-06-04T09:49:22;44991.94;;;-143.84;38.75
6032;BME280;3044;43.232;27.972;2023-06-04T09:51:51;44978.63;;;-143.84;38.72
6032;BME280;3044;43.232;27.972;2023-06-04T09:54:18;44995.75;;;-143.84;40.23
6032;BME280;3044;43.232;27.972;2023-06-04T09:56:45;44965.28;;;-143.84;39.03
6032;BME280;3044;43.232;27.972;2023-06-04T09:59:13;44993.84;;;-143.84;39.73
6032;BME280;3044;43.232;27.972;2023-06-04T10:01:41;44993.84;;;-143.84;38.97
6032;BME280;3044;43.232;27.972;2023-06-04T10:04:09;44999.56;;;-143.84;37.81
6032;BME280;3044;43.232;27.972;2023-06-04T10:06:38;44990.03;;;-143.84;38.26
6032;BME280;3044;43.232;27.972;2023-06-04T10:09:08;44982.41;;;-143.84;36.95
6032;BME280;3044;43.232;27.972;2023-06-04T10:11:38;44976.72;;;-143.84;37.02
6032;BME280;3044;43.232;27.972;2023-06-04T10:14:12;44971.00;;;-143.84;36.80
6032;BME280;3044;43.232;27.972;2023-06-04T10:16:43;44963.38;;;-143.84;37.28
6032;BME280;3044;43.232;27.972;2023-06-04T10:19:11;44984.31;;;-143.84;37.10
6032;BME280;3044;43.232;27.972;2023-06-04T10:21:39;44982.41;;;-143.84;38.01
6032;BME280;3044;43.232;27.972;2023-06-04T10:24:07;44969.09;;;-143.84;38.71
6032;BME280;3044;43.232;27.972;2023-06-04T10:26:35;44972.91;;;-143.84;39.36
6032;BME280;3044;43.232;27.972;2023-06-04T10:29:05;45005.28;;;-143.84;37.50
6032;BME280;3044;43.232;27.972;2023-06-04T10:31:33;44953.88;;;-143.84;38.82
6032;BME280;3044;43.232;27.972;2023-06-04T10:34:00;44974.81;;;-143.84;38.30
6032;BME280;3044;43.232;27.972;2023-06-04T10:36:28;44980.53;;;-143.84;37.80
6032;BME280;3044;43.232;27.972;2023-06-04T10:38:56;44974.81;;;-143.84;37.45
6032;BME280;3044;43.232;27.972;2023-06-04T10:41:24;44984.31;;;-143.84;37.81
6032;BME280;3044;43.232;27.972;2023-06-04T10:44:00;44965.28;;;-143.84;37.80
6032;BME280;3044;43.232;27.972;2023-06-04T10:46:37;45012.88;;;-143.84;37.35
6032;BME280;3044;43.232;27.972;2023-06-04T10:49:05;44984.31;;;-143.84;38.67
6032;BME280;3044;43.232;27.972;2023-06-04T10:51:33;45016.69;;;-143.84;38.69
6032;BME280;3044;43.232;27.972;2023-06-04T10:54:01;44993.84;;;-143.84;38.29
6032;BME280;3044;43.232;27.972;2023-06-04T10:56:31;44982.41;;;-143.84;38.81
6032;BME280;3044;43.232;27.972;2023-06-04T10:59:00;45007.19;;;-143.84;37.88
6032;BME280;3044;43.232;27.972;2023-06-04T11:01:27;44976.72;;;-143.84;38.99
6032;BME280;3044;43.232;27.972;2023-06-04T11:03:56;44980.53;;;-143.84;39.17
6032;BME280;3044;43.232;27.972;2023-06-04T11:06:23;44991.94;;;-143.84;39.30
6032;BME280;3044;43.232;27.972;2023-06-04T11:09:02;44971.00;;;-143.84;38.92
6032;BME280;3044;43.232;27.972;2023-06-04T11:11:32;44993.84;;;-143.84;39.52
6032;BME280;3044;43.232;27.972;2023-06-04T11:14:07;44974.81;;;-143.84;39.89
6032;BME280;3044;43.232;27.972;2023-06-04T11:16:34;45003.38;;;-143.84;40.12
6032;BME280;3044;43.232;27.972;2023-06-04T11:19:01;45005.28;;;-143.84;40.31
6032;BME280;3044;43.232;27.972;2023-06-04T11:21:29;44991.94;;;-143.84;39.60
6032;BME280;3044;43.232;27.972;2023-06-04T11:23:58;45018.59;;;-143.84;39.63
6032;BME280;3044;43.232;27.972;2023-06-04T11:26:31;45024.31;;;-143.84;40.09
6032;BME280;3044;43.232;27.972;2023-06-04T11:29:00;45054.78;;;-143.84;39.35
6032;BME280;3044;43.232;27.972;2023-06-04T11:31:27;44988.13;;;-143.84;40.00
6032;BME280;3044;43.232;27.972;2023-06-04T11:33:54;44999.56;;;-143.84;40.39
6032;BME280;3044;43.232;27.972;2023-06-04T11:36:25;45022.41;;;-143.84;40.81
6032;BME280;3044;43.232;27.972;2023-06-04T11:38:56;44995.75;;;-143.84;41.04
6032;BME280;3044;43.232;27.972;2023-06-04T11:41:24;45001.47;;;-143.84;41.26
6032;BME280;3044;43.232;27.972;2023-06-04T11:43:53;44995.75;;;-143.84;39.72
6032;BME280;3044;43.232;27.972;2023-06-04T11:46:20;45012.88;;;-143.84;40.39
6032;BME280;3044;43.232;27.972;2023-06-04T11:48:47;44995.75;;;-143.84;40.56
6032;BME280;3044;43.232;27.972;2023-06-04T11:51:16;45007.19;;;-143.84;40.59
6032;BME280;3044;43.232;27.972;2023-06-04T11:53:44;45018.59;;;-143.84;40.51
6032;BME280;3044;43.232;27.972;2023-06-04T11:56:11;45007.19;;;-143.84;41.09
6032;BME280;3044;43.232;27.972;2023-06-04T11:58:39;45018.59;;;-143.84;41.68
6032;BME280;3044;43.232;27.972;2023-06-04T12:01:08;45022.41;;;-143.84;40.68
6032;BME280;3044;43.232;27.972;2023-06-04T12:03:36;44990.03;;;-143.84;40.94
6032;BME280;3044;43.232;27.972;2023-06-04T12:06:13;44986.22;;;-143.84;39.59
6032;BME280;3044;43.232;27.972;2023-06-04T12:08:49;44997.66;;;-143.84;39.75
6032;BME280;3044;43.232;27.972;2023-06-04T12:11:26;44997.66;;;-143.84;40.16
6032;BME280;3044;43.232;27.972;2023-06-04T12:13:54;45009.09;;;-143.84;39.88
6032;BME280;3044;43.232;27.972;2023-06-04T12:16:23;45007.19;;;-143.84;40.46
6032;BME280;3044;43.232;27.972;2023-06-04T12:18:51;44980.53;;;-143.84;40.83
6032;BME280;3044;43.232;27.972;2023-06-04T12:21:21;44997.66;;;-143.84;40.95
6032;BME280;3044;43.232;27.972;2023-06-04T12:23:53;44986.22;;;-143.84;39.93
6032;BME280;3044;43.232;27.972;2023-06-04T12:26:22;44999.56;;;-143.84;40.53
6032;BME280;3044;43.232;27.972;2023-06-04T12:28:59;44995.75;;;-143.84;41.71
6032;BME280;3044;43.232;27.972;2023-06-04T12:31:28;44999.56;;;-143.84;41.97
6032;BME280;3044;43.232;27.972;2023-06-04T12:33:58;45003.38;;;-143.84;40.55
6032;BME280;3044;43.232;27.972;2023-06-04T12:36:26;45014.78;;;-143.84;42.52
6032;BME280;3044;43.232;27.972;2023-06-04T12:38:58;45014.78;;;-143.84;41.30
6032;BME280;3044;43.232;27.972;2023-06-04T12:41:26;44995.75;;;-143.84;42.30
6032;BME280;3044;43.232;27.972;2023-06-04T12:43:53;45018.59;;;-143.84;41.61
6032;BME280;3044;43.232;27.972;2023-06-04T12:46:21;45014.78;;;-143.84;42.31
6032;BME280;3044;43.232;27.972;2023-06-04T12:48:50;45041.44;;;-143.84;41.66
6032;BME280;3044;43.232;27.972;2023-06-04T12:51:18;45001.47;;;-143.84;40.72
6032;BME280;3044;43.232;27.972;2023-06-04T12:53:46;45028.13;;;-143.84;41.56
6032;BME280;3044;43.232;27.972;2023-06-04T12:56:14;45028.13;;;-143.84;41.65